Aeroporto :
LOGIN :

Iscrizione | Disclaimer

   EN    FR    IT 

 










Sommario :    VFR   VFR Marginale   IFR   IFR Intensivo   IFR Molto Intensivo
Visibilità : 
Base nubi : 
>= 8 km
>= 3000ft
5 / 8 km
1000 / 3000 ft
1500m / 5 km
500 / 1000 ft
800 / 1500m
200 / 500 ft
< 800m
< 200 ft
Simboli :   Temporali  Nebbia  Neve Forte  Precipitazioni Forti  Vento > 20 kt
SIGMETs :   Varie  Temporali  Ghiacco  Turbolenza  Onda orograficha  Ceneri Vulcaniche






- Altitudine del aeroporto : 768 ft
- Codice IATA : MXP


LIMC - Milano Malpensa

ULTIMO METAR :
  • 210120Z 02003KT 330V070 CAVOK 04/M09 Q1018 NOSIG

METARs OBSOLETI :
  • 210050Z 03006KT 340V050 CAVOK 04/M09 Q1019 NOSIG
  • 210020Z 02010KT CAVOK 03/M07 Q1018 NOSIG
  • 202350Z 35007KT CAVOK 03/M07 Q1019 NOSIG
  • 202320Z 01008KT 350V050 CAVOK 01/M06 Q1019 NOSIG
  • 202250Z 36008KT CAVOK M00/M05 Q1019 NOSIG

TAF TAF LIMC
Valido dal 21 a 00 ore il 22 a 06 ore UTC


202300Z 2100/2206 01010KT CAVOK
BECMG 2104/2106 VRB05KT
TEMPO 2106/2109 1500 BCFG
BECMG 2118/2120 3000 BR
TEMPO 2123/2206 0600 FZFG BKN004



MetMap, La meteo Aeronautica in un colpo d'occhio ! - Copyright ORBIFLY Dicembre 2007 - Disclaimer

ORBIFLY MET'MAP TEAM :

Programmazione e sviluppo : Alexandra Zaïnal
Concezione : Baudouin d'Aumeries
Aiuto per la programmazione : Marc-Olivier Méhu
Supporto tecnico e logistico : Manuel Goepfert
Aiuto per la traduzione : Arnaldo La Scala

Contatto : metmap@orbifly.com




FONTI E CREDITI :

   NOAA